Time,TemperatureF,DewpointF,PressureIn,WindDirection,WindDirectionDegrees,WindSpeedMPH,WindSpeedGustMPH,Humidity,HourlyPrecipIn,Conditions,Clouds,dailyrainin,SoftwareType,DateUTC
2013-10-19 00:11:00,44.0,40.0,30.03,SE,130,0.0,-999.0,87,-99.99,,,-99.99,,2013-10-19 07:11:00,
2013-10-19 00:21:00,44.0,41.0,30.02,SE,130,0.0,-999.0,88,-99.99,,,-99.99,,2013-10-19 07:21:00,
2013-10-19 00:42:00,43.0,40.0,30.03,SE,130,0.0,-999.0,88,-99.99,,,-99.99,,2013-10-19 07:42:00,
2013-10-19 00:52:00,43.0,40.0,30.03,SE,130,0.0,-999.0,88,-99.99,,,-99.99,,2013-10-19 07:52:00,
2013-10-19 01:11:00,42.0,39.0,30.03,SE,129,0.0,-999.0,89,-99.99,,,-99.99,,2013-10-19 08:11:00,
2013-10-19 01:22:00,42.0,39.0,30.02,SE,129,0.0,-999.0,90,-99.99,,,-99.99,,2013-10-19 08:22:00,
2013-10-19 01:31:00,42.0,39.0,30.02,SE,129,0.0,-999.0,90,-99.99,,,-99.99,,2013-10-19 08:31:00,
2013-10-19 01:42:00,42.0,39.0,30.02,SE,129,0.0,-999.0,90,-99.99,,,-99.99,,2013-10-19 08:42:00,
2013-10-19 01:52:00,42.0,39.0,30.03,SE,129,0.0,-999.0,90,-99.99,,,-99.99,,2013-10-19 08:52:00,
2013-10-19 02:11:00,42.0,40.0,30.03,SE,129,0.0,-999.0,91,-99.99,,,-99.99,,2013-10-19 09:11:00,
2013-10-19 02:21:00,42.0,39.0,30.03,SE,129,0.0,-999.0,90,-99.99,,,-99.99,,2013-10-19 09:21:00,
2013-10-19 02:43:00,42.0,39.0,30.03,SE,129,0.0,-999.0,90,-99.99,,,-99.99,,2013-10-19 09:43:00,
2013-10-19 02:54:00,42.0,39.0,30.03,SE,129,0.0,-999.0,90,-99.99,,,-99.99,,2013-10-19 09:54:00,
2013-10-19 03:13:00,41.0,38.0,30.03,SE,130,0.0,-999.0,90,-99.99,,,-99.99,,2013-10-19 10:13:00,
2013-10-19 03:23:00,41.0,38.0,30.03,SE,129,0.0,-999.0,90,-99.99,,,-99.99,,2013-10-19 10:23:00,
2013-10-19 03:42:00,40.0,37.0,30.03,SE,129,0.0,-999.0,90,-99.99,,,-99.99,,2013-10-19 10:42:00,
2013-10-19 03:53:00,40.0,37.0,30.03,SE,130,0.0,-999.0,90,-99.99,,,-99.99,,2013-10-19 10:53:00,
2013-10-19 04:12:00,40.0,38.0,30.04,SE,129,0.0,-999.0,91,-99.99,,,-99.99,,2013-10-19 11:12:00,
2013-10-19 04:22:00,40.0,38.0,30.04,SE,129,0.0,-999.0,91,-99.99,,,-99.99,,2013-10-19 11:22:00,
2013-10-19 04:42:00,39.0,37.0,30.04,SE,129,0.0,-999.0,91,-99.99,,,-99.99,,2013-10-19 11:42:00,
2013-10-19 04:52:00,39.0,37.0,30.04,SE,130,0.0,-999.0,91,-99.99,,,-99.99,,2013-10-19 11:52:00,
2013-10-19 05:11:00,39.0,37.0,30.04,SE,129,0.0,-999.0,91,-99.99,,,-99.99,,2013-10-19 12:11:00,
2013-10-19 05:21:00,38.0,36.0,30.04,SE,129,0.0,-999.0,91,-99.99,,,-99.99,,2013-10-19 12:21:00,
2013-10-19 05:42:00,38.0,36.0,30.05,SE,129,0.0,-999.0,91,-99.99,,,-99.99,,2013-10-19 12:42:00,
2013-10-19 05:52:00,38.0,36.0,30.05,SE,130,0.0,-999.0,91,-99.99,,,-99.99,,2013-10-19 12:52:00,
2013-10-19 06:11:00,37.0,35.0,30.05,SE,129,0.0,-999.0,91,-99.99,,,-99.99,,2013-10-19 13:11:00,
2013-10-19 06:22:00,37.0,35.0,30.05,SE,129,0.0,-999.0,92,-99.99,,,-99.99,,2013-10-19 13:22:00,
2013-10-19 06:42:00,37.0,35.0,30.06,SE,130,0.0,-999.0,92,-99.99,,,-99.99,,2013-10-19 13:42:00,
2013-10-19 06:52:00,37.0,35.0,30.06,SE,129,0.0,-999.0,92,-99.99,,,-99.99,,2013-10-19 13:52:00,
2013-10-19 07:11:00,37.0,35.0,30.06,SE,130,0.0,-999.0,92,-99.99,,,-99.99,,2013-10-19 14:11:00,
2013-10-19 07:21:00,36.0,34.0,30.06,SE,130,0.0,-999.0,92,-99.99,,,-99.99,,2013-10-19 14:21:00,
2013-10-19 07:42:00,36.0,34.0,30.06,SE,130,0.0,-999.0,92,-99.99,,,-99.99,,2013-10-19 14:42:00,
2013-10-19 07:52:00,36.0,34.0,30.06,SE,129,0.0,-999.0,92,-99.99,,,-99.99,,2013-10-19 14:52:00,
2013-10-19 08:11:00,36.0,34.0,30.07,SE,129,0.0,-999.0,92,-99.99,,,-99.99,,2013-10-19 15:11:00,
2013-10-19 08:22:00,37.0,35.0,30.07,SE,130,0.0,-999.0,93,-99.99,,,-99.99,,2013-10-19 15:22:00,
2013-10-19 08:44:00,39.0,37.0,30.08,SE,130,0.0,-999.0,94,-99.99,,,-99.99,,2013-10-19 15:44:00,
2013-10-19 08:55:00,40.0,38.0,30.08,SE,130,0.0,-999.0,93,-99.99,,,-99.99,,2013-10-19 15:55:00,
2013-10-19 09:14:00,43.0,41.0,30.08,SE,130,0.0,-999.0,93,-99.99,,,-99.99,,2013-10-19 16:14:00,
2013-10-19 09:24:00,45.0,42.0,30.08,SE,130,0.0,-999.0,89,-99.99,,,-99.99,,2013-10-19 16:24:00,
2013-10-19 09:42:00,47.0,43.0,30.08,SE,130,0.0,-999.0,87,-99.99,,,-99.99,,2013-10-19 16:42:00,
2013-10-19 09:53:00,50.0,44.0,30.09,SE,130,0.0,-999.0,79,-99.99,,,-99.99,,2013-10-19 16:53:00,
2013-10-19 10:13:00,52.0,44.0,30.09,SE,130,0.0,-999.0,75,-99.99,,,-99.99,,2013-10-19 17:13:00,
2013-10-19 10:22:00,54.0,45.0,30.09,SE,130,0.0,-999.0,71,-99.99,,,-99.99,,2013-10-19 17:22:00,
2013-10-19 10:43:00,55.0,45.0,30.08,SE,130,0.0,-999.0,70,-99.99,,,-99.99,,2013-10-19 17:43:00,
2013-10-19 10:52:00,59.0,46.0,30.08,SE,130,0.0,-999.0,63,-99.99,,,-99.99,,2013-10-19 17:52:00,
2013-10-19 11:12:00,62.0,48.0,30.08,SE,130,0.0,-999.0,60,-99.99,,,-99.99,,2013-10-19 18:12:00,
2013-10-19 11:21:00,62.0,48.0,30.08,SE,130,0.0,-999.0,60,-99.99,,,-99.99,,2013-10-19 18:21:00,
2013-10-19 11:42:00,63.0,47.0,30.07,SE,130,0.0,-999.0,56,-99.99,,,-99.99,,2013-10-19 18:42:00,
2013-10-19 11:52:00,65.0,46.0,30.07,SE,130,0.0,-999.0,51,-99.99,,,-99.99,,2013-10-19 18:52:00,
2013-10-19 12:12:00,66.0,46.0,30.07,SE,130,0.0,-999.0,48,-99.99,,,-99.99,,2013-10-19 19:12:00,
2013-10-19 12:22:00,68.0,46.0,30.06,SE,130,0.0,-999.0,45,-99.99,,,-99.99,,2013-10-19 19:22:00,
2013-10-19 12:42:00,70.0,47.0,30.06,SE,130,0.0,-999.0,44,-99.99,,,-99.99,,2013-10-19 19:42:00,
2013-10-19 12:52:00,72.0,48.0,30.06,SE,129,0.0,-999.0,42,-99.99,,,-99.99,,2013-10-19 19:52:00,
2013-10-19 13:11:00,75.0,48.0,30.05,SE,130,0.0,-999.0,38,-99.99,,,-99.99,,2013-10-19 20:11:00,
2013-10-19 13:22:00,76.0,48.0,30.04,SE,130,0.0,-999.0,37,-99.99,,,-99.99,,2013-10-19 20:22:00,
2013-10-19 13:42:00,78.0,45.0,30.04,East,93,0.0,-999.0,31,-99.99,,,-99.99,,2013-10-19 20:42:00,
2013-10-19 13:52:00,79.0,46.0,30.03,SSE,167,0.0,-999.0,31,-99.99,,,-99.99,,2013-10-19 20:52:00,
2013-10-19 14:11:00,80.0,46.0,30.02,ESE,108,0.0,-999.0,30,-99.99,,,-99.99,,2013-10-19 21:11:00,
2013-10-19 14:21:00,82.0,44.0,30.01,SE,132,0.0,-999.0,26,-99.99,,,-99.99,,2013-10-19 21:21:00,
2013-10-19 14:44:00,84.0,44.0,30.01,North,350,0.0,-999.0,25,-99.99,,,-99.99,,2013-10-19 21:44:00,
2013-10-19 14:54:00,84.0,41.0,30.00,SE,129,1.0,-999.0,22,-99.99,,,-99.99,,2013-10-19 21:54:00,
2013-10-19 15:14:00,84.0,42.0,30.00,SE,124,1.0,-999.0,23,-99.99,,,-99.99,,2013-10-19 22:14:00,
2013-10-19 15:24:00,85.0,39.0,29.99,SE,129,1.0,-999.0,20,-99.99,,,-99.99,,2013-10-19 22:24:00,
2013-10-19 15:43:00,85.0,42.0,29.99,ESE,117,1.0,-999.0,22,-99.99,,,-99.99,,2013-10-19 22:43:00,
2013-10-19 15:53:00,86.0,41.0,29.98,ESE,122,1.0,-999.0,21,-99.99,,,-99.99,,2013-10-19 22:53:00,
2013-10-19 16:12:00,86.0,40.0,29.98,ESE,122,0.0,-999.0,20,-99.99,,,-99.99,,2013-10-19 23:12:00,
2013-10-19 16:22:00,87.0,40.0,29.98,ESE,120,1.0,-999.0,19,-99.99,,,-99.99,,2013-10-19 23:22:00,
2013-10-19 16:42:00,87.0,38.0,29.98,East,87,0.0,-999.0,18,-99.99,,,-99.99,,2013-10-19 23:42:00,
2013-10-19 16:52:00,86.0,44.0,29.98,SE,140,0.0,-999.0,23,-99.99,,,-99.99,,2013-10-19 23:52:00,
2013-10-19 17:11:00,84.0,44.0,29.97,SSW,199,1.0,-999.0,25,-99.99,,,-99.99,,2013-10-20 00:11:00,
2013-10-19 17:22:00,83.0,47.0,29.97,SSW,192,0.0,-999.0,28,-99.99,,,-99.99,,2013-10-20 00:22:00,
2013-10-19 17:42:00,82.0,47.0,29.97,SSW,192,0.0,-999.0,30,-99.99,,,-99.99,,2013-10-20 00:42:00,
2013-10-19 17:52:00,80.0,47.0,29.97,South,179,0.0,-999.0,31,-99.99,,,-99.99,,2013-10-20 00:52:00,
2013-10-19 18:11:00,78.0,45.0,29.98,SE,127,0.0,-999.0,31,-99.99,,,-99.99,,2013-10-20 01:11:00,
2013-10-19 18:21:00,76.0,45.0,29.98,SE,130,0.0,-999.0,33,-99.99,,,-99.99,,2013-10-20 01:21:00,
2013-10-19 18:42:00,74.0,45.0,29.98,SE,130,0.0,-999.0,36,-99.99,,,-99.99,,2013-10-20 01:42:00,
2013-10-19 18:52:00,72.0,47.0,29.98,SE,130,1.0,-999.0,41,-99.99,,,-99.99,,2013-10-20 01:52:00,
2013-10-19 19:11:00,68.0,46.0,29.98,ESE,123,1.0,-999.0,45,-99.99,,,-99.99,,2013-10-20 02:11:00,
2013-10-19 20:12:00,59.0,45.0,30.00,SE,136,1.0,-999.0,60,-99.99,,,-99.99,,2013-10-20 03:12:00,
2013-10-19 20:21:00,58.0,45.0,30.00,SE,132,1.0,-999.0,61,-99.99,,,-99.99,,2013-10-20 03:21:00,
2013-10-19 20:44:00,57.0,44.0,30.00,SE,132,0.0,-999.0,62,-99.99,,,-99.99,,2013-10-20 03:44:00,
2013-10-19 20:54:00,57.0,45.0,30.00,SE,132,0.0,-999.0,64,-99.99,,,-99.99,,2013-10-20 03:54:00,
2013-10-19 21:02:00,-999.0,-99.9,30.01,SE,132,0.0,-999.0,-999,-99.99,,,-99.99,,2013-10-20 04:02:00,
2013-10-19 21:14:00,56.0,45.0,30.01,SE,132,0.0,-999.0,66,-99.99,,,-99.99,,2013-10-20 04:14:00,
2013-10-19 21:24:00,55.0,45.0,30.01,SE,132,0.0,-999.0,68,-99.99,,,-99.99,,2013-10-20 04:24:00,
2013-10-19 21:44:00,54.0,45.0,30.01,SE,132,0.0,-999.0,72,-99.99,,,-99.99,,2013-10-20 04:44:00,
2013-10-19 21:54:00,53.0,44.0,30.01,SE,132,0.0,-999.0,72,-99.99,,,-99.99,,2013-10-20 04:54:00,
2013-10-19 22:13:00,52.0,44.0,30.02,SE,132,0.0,-999.0,73,-99.99,,,-99.99,,2013-10-20 05:13:00,
2013-10-19 22:23:00,51.0,43.0,30.02,SE,132,0.0,-999.0,74,-99.99,,,-99.99,,2013-10-20 05:23:00,
2013-10-19 22:43:00,51.0,44.0,30.02,SE,131,1.0,-999.0,77,-99.99,,,-99.99,,2013-10-20 05:43:00,
2013-10-19 22:52:00,50.0,44.0,30.03,SE,131,0.0,-999.0,79,-99.99,,,-99.99,,2013-10-20 05:52:00,
2013-10-19 23:12:00,49.0,44.0,30.03,SE,135,1.0,-999.0,82,-99.99,,,-99.99,,2013-10-20 06:12:00,
2013-10-19 23:22:00,49.0,44.0,30.03,SE,126,1.0,-999.0,83,-99.99,,,-99.99,,2013-10-20 06:22:00,
2013-10-19 23:52:00,48.0,44.0,30.03,SE,126,0.0,-999.0,85,-99.99,,,-99.99,,2013-10-20 06:52:00,